Pj Brix — WDD5130 — position and weather

sailwx.info

Track history (hours):
 
Tides and Currents Weather Stations Pressure Air Temp Water Temp Dewpoint Dewpoint Depression Visibility Wind Speed Wind Dir Waves Ship Positions

Pj Brix

Owner: Foss Maritime Co., Portland, OR. More information available from US FCC via Universal Licensing System and Coast Guard Vessel Documentation Center.

Last reported at 2017-Nov-20 00:31 UTC. Time now 2017-Nov-20 02:15 UTC.
Position N 46°02' W 122°52'.

Length 39 m; draft 3 m.

Type: Towing. MMSI: 2249672.

Date/timePositionNaut miles runAvg speedWind from/ knotsBaromVisibWave heightAir tempDewpointWater temp
2017-Nov-20 00:31N 46°02' W 122°52'0 0.1
2017-Nov-20 00:01N 46°02' W 122°52'1 2.6
2017-Nov-19 23:31N 46°03' W 122°53'3 6.5
2017-Nov-19 23:01N 46°05' W 122°56'0 0.0
2017-Nov-19 22:30N 46°05' W 122°56'0 0.0
2017-Nov-19 22:00N 46°05' W 122°56'0 0.0
2017-Nov-19 21:31N 46°05' W 122°56'0 0.0
2017-Nov-19 21:00N 46°05' W 122°56'0 0.0
2017-Nov-19 20:31N 46°05' W 122°56'0 0.0
2017-Nov-19 20:01N 46°05' W 122°56'0 0.0
2017-Nov-19 19:19N 46°05' W 122°56'0 0.0
2017-Nov-19 19:01N 46°05' W 122°56'0 0.0
2017-Nov-19 18:31N 46°05' W 122°56'0 0.0
2017-Nov-19 18:00N 46°05' W 122°56'0 0.0
2017-Nov-19 17:30N 46°05' W 122°56'0 0.0
2017-Nov-19 17:01N 46°05' W 122°56'0 0.0
2017-Nov-19 16:05N 46°05' W 122°56'0 0.0
2017-Nov-19 16:00N 46°05' W 122°56'0 0.0
2017-Nov-19 15:31N 46°05' W 122°56'0 0.0
2017-Nov-19 15:00N 46°05' W 122°56'0 0.0
2017-Nov-19 14:31N 46°05' W 122°56'0 0.0
2017-Nov-19 14:00N 46°05' W 122°56'0 0.0
2017-Nov-19 13:30N 46°05' W 122°56'0 0.0
2017-Nov-19 13:01N 46°05' W 122°56'0 0.0
2017-Nov-19 12:31N 46°05' W 122°56'0 0.0
2017-Nov-19 12:01N 46°05' W 122°56'0 0.0
2017-Nov-19 11:30N 46°05' W 122°56'0 0.0
2017-Nov-19 11:00N 46°05' W 122°56'0 0.0
2017-Nov-19 10:30N 46°05' W 122°56'0 0.0
2017-Nov-19 10:01N 46°05' W 122°56'0 0.0
2017-Nov-19 09:20N 46°05' W 122°56'0 0.0
2017-Nov-19 09:01N 46°05' W 122°56'0 0.0
2017-Nov-19 08:30N 46°05' W 122°56'0 0.0
2017-Nov-19 08:00N 46°05' W 122°56'0 0.0
2017-Nov-19 07:30N 46°05' W 122°56'0 0.0
2017-Nov-19 07:01N 46°05' W 122°56'0 0.0
2017-Nov-19 06:30N 46°05' W 122°56'0 0.0
2017-Nov-19 06:00N 46°05' W 122°56'0 0.0
2017-Nov-19 05:30N 46°05' W 122°56'0 0.0
2017-Nov-19 05:01N 46°05' W 122°56'0 0.0
2017-Nov-19 04:30N 46°05' W 122°56'0 0.0
2017-Nov-19 04:00N 46°05' W 122°56'0 0.0
2017-Nov-19 03:31N 46°05' W 122°56'0 0.0
2017-Nov-19 03:01N 46°05' W 122°56'0 0.0
2017-Nov-19 02:30N 46°05' W 122°56'0 0.0
2017-Nov-19 02:00N 46°05' W 122°56'0 0.0
2017-Nov-19 01:31N 46°05' W 122°56'0 0.0
2017-Nov-19 01:00N 46°05' W 122°56'0 0.0
2017-Nov-19 00:30N 46°05' W 122°56'0 0.0
2017-Nov-19 00:01N 46°05' W 122°56'0 0.0
2017-Nov-18 23:31N 46°05' W 122°56'0 0.0
2017-Nov-18 23:00N 46°05' W 122°56'2 3.3
2017-Nov-18 22:31N 46°06' W 122°58'4 8.2
2017-Nov-18 22:00N 46°09' W 123°02'4 8.4
2017-Nov-18 21:30N 46°11' W 123°08'4 8.2
2017-Nov-18 21:01N 46°10' W 123°13'4 8.3
2017-Nov-18 20:30N 46°09' W 123°19'4 8.2
2017-Nov-18 20:01N 46°10' W 123°24'4 8.2
2017-Nov-18 19:31N 46°14' W 123°26'4 7.8
2017-Nov-18 19:01N 46°16' W 123°30'4 8.5
2017-Nov-18 18:31N 46°15' W 123°36'4 8.8
2017-Nov-18 18:01N 46°15' W 123°42'4 7.5
2017-Nov-18 17:31N 46°12' W 123°47'1 1.4
2017-Nov-18 17:00N 46°13' W 123°46'0 1.0
2017-Nov-18 16:30N 46°13' W 123°45'0 1.0
2017-Nov-18 16:01N 46°13' W 123°45'3 5.9
2017-Nov-18 15:31N 46°15' W 123°41'4 7.3
2017-Nov-18 15:01N 46°15' W 123°36'4 7.9
2017-Nov-18 14:30N 46°16' W 123°30'4 7.2
2017-Nov-18 14:01N 46°14' W 123°26'4 7.7
2017-Nov-18 13:30N 46°11' W 123°25'5 7.1
2017-Nov-18 12:50N 46°09' W 123°19'2 7.4
2017-Nov-18 12:30N 46°09' W 123°16'4 7.4
2017-Nov-18 11:58N 46°11' W 123°11'3 6.5
2017-Nov-18 11:31N 46°11' W 123°06'3 6.6
2017-Nov-18 11:01N 46°09' W 123°02'3 6.5
2017-Nov-18 10:31N 46°07' W 122°59'1 2.4
2017-Nov-18 10:00N 46°06' W 122°57'0 0.0
2017-Nov-18 09:30N 46°06' W 122°57'4 7.4
2017-Nov-18 09:01N 46°04' W 122°53'2 4.7
2017-Nov-18 08:30N 46°02' W 122°52'0 0.1
2017-Nov-18 08:00N 46°02' W 122°52'0 1.0
2017-Nov-18 07:30N 46°02' W 122°53'0 0.8
2017-Nov-18 07:00N 46°02' W 122°52'0 0.0
2017-Nov-18 06:30N 46°02' W 122°52'0 0.0
2017-Nov-18 06:00N 46°02' W 122°52'0 0.0
2017-Nov-18 05:30N 46°02' W 122°52'0 0.0
2017-Nov-18 05:00N 46°02' W 122°52'2 4.1
2017-Nov-18 04:30N 46°04' W 122°53'3 5.0
2017-Nov-18 04:00N 46°05' W 122°56'0 0.0
2017-Nov-18 03:30N 46°05' W 122°56'0 0.0
2017-Nov-18 03:00N 46°05' W 122°56'0 0.0
2017-Nov-18 02:30N 46°05' W 122°56'0 0.0
2017-Nov-18 02:00N 46°05' W 122°56'0 0.0
2017-Nov-18 01:15N 46°05' W 122°56'0 0.0
2017-Nov-18 00:47N 46°05' W 122°56'0 0.0
2017-Nov-18 00:15N 46°05' W 122°56'0 0.0
2017-Nov-18 00:00N 46°05' W 122°56'0 0.0
2017-Nov-17 23:31N 46°05' W 122°56'0 0.0
2017-Nov-17 23:00N 46°05' W 122°56'0 0.0
2017-Nov-17 22:31N 46°05' W 122°56'0 0.0
2017-Nov-17 22:01N 46°05' W 122°56'0 0.0
2017-Nov-17 21:30N 46°05' W 122°56'0 0.0
2017-Nov-17 21:00N 46°05' W 122°56'0 0.0
2017-Nov-17 20:30N 46°05' W 122°56'0 0.0
2017-Nov-17 20:00N 46°05' W 122°56'0 0.0
2017-Nov-17 19:30N 46°05' W 122°56'0 0.0
2017-Nov-17 19:00N 46°05' W 122°56'0 0.0
2017-Nov-17 18:31N 46°05' W 122°56'0 0.0
2017-Nov-17 18:00N 46°05' W 122°56'0 0.0
2017-Nov-17 17:31N 46°05' W 122°56'0 0.0
2017-Nov-17 17:00N 46°05' W 122°56'0 0.0
2017-Nov-17 16:30N 46°05' W 122°56'1 2.2
2017-Nov-17 16:00N 46°06' W 122°57'0 0.1
2017-Nov-17 15:31N 46°06' W 122°57'1 2.0
2017-Nov-17 14:48N 46°07' W 122°59'3 6.9
2017-Nov-17 14:18N 46°05' W 122°55'310.4
2017-Nov-17 14:00N 46°02' W 122°53'1 1.2
2017-Nov-17 13:30N 46°02' W 122°52'0 0.0
2017-Nov-17 12:59N 46°02' W 122°52'0 0.0
2017-Nov-17 12:30N 46°02' W 122°52'2 4.2
2017-Nov-17 12:01N 45°60' W 122°51'5 9.0
2017-Nov-17 11:30N 45°56' W 122°48'4 9.0
2017-Nov-17 11:01N 45°51' W 122°47'5 8.8
2017-Nov-17 10:23N 45°46' W 122°46'4 9.6
2017-Nov-17 10:01N 45°42' W 122°46'4 8.3
2017-Nov-17 09:31N 45°39' W 122°44'1 2.3
2017-Nov-17 08:54N 45°38' W 122°42'2 6.0
2017-Nov-17 08:31N 45°39' W 122°45'1 2.2
2017-Nov-17 08:01N 45°39' W 122°46'0 0.0
2017-Nov-17 07:30N 45°39' W 122°46'0 0.3
2017-Nov-17 07:01N 45°39' W 122°46'1 1.7
2017-Nov-17 06:30N 45°39' W 122°46'0 0.3
2017-Nov-17 06:01N 45°39' W 122°45'2 3.9
2017-Nov-17 05:31N 45°41' W 122°46'4 8.1
2017-Nov-17 05:01N 45°45' W 122°46'4 8.0
2017-Nov-17 04:31N 45°49' W 122°48'4 7.7
2017-Nov-17 04:00N 45°53' W 122°48'4 7.7
2017-Nov-17 03:28N 45°57' W 122°49'4 8.0
2017-Nov-17 03:00N 46°00' W 122°51'4 7.5
2017-Nov-17 02:30N 46°04' W 122°53'2 4.9
2017-Nov-17 02:00N 46°05' W 122°56'0 0.0
2017-Nov-17 01:30N 46°05' W 122°56'0 0.0
2017-Nov-17 01:01N 46°05' W 122°56'0 0.0
2017-Nov-17 00:30N 46°05' W 122°56'0 0.0
2017-Nov-17 00:01N 46°05' W 122°56'0 0.0
2017-Nov-16 23:31N 46°05' W 122°56'0 0.0
2017-Nov-16 23:00N 46°05' W 122°56'0 0.0
2017-Nov-16 22:30N 46°05' W 122°56'0 0.0
2017-Nov-16 22:01N 46°05' W 122°56'0 0.0
2017-Nov-16 21:30N 46°05' W 122°56'0 0.0
2017-Nov-16 21:00N 46°05' W 122°56'0 0.0
2017-Nov-16 20:31N 46°05' W 122°56'0 0.0
2017-Nov-16 20:00N 46°05' W 122°56'0 0.0
2017-Nov-16 19:30N 46°05' W 122°56'0 0.9
2017-Nov-16 19:01N 46°05' W 122°55'0 0.8
2017-Nov-16 18:31N 46°05' W 122°56'0 0.0
2017-Nov-16 18:00N 46°05' W 122°56'0 0.0
2017-Nov-16 17:30N 46°05' W 122°56'0 0.0
2017-Nov-16 17:01N 46°05' W 122°56'0 0.0
2017-Nov-16 16:30N 46°05' W 122°56'0 0.0
2017-Nov-16 16:00N 46°05' W 122°56'1 1.8
2017-Nov-16 15:31N 46°06' W 122°57'2 4.6
2017-Nov-16 15:00N 46°08' W 122°59'0 1.0
2017-Nov-16 14:30N 46°08' W 122°60'0 0.8
2017-Nov-16 14:00N 46°08' W 123°00'2 4.3
2017-Nov-16 13:30N 46°06' W 122°58'2 3.7
2017-Nov-16 13:00N 46°05' W 122°56'0 0.0
2017-Nov-16 12:31N 46°05' W 122°56'0 0.0
2017-Nov-16 12:00N 46°05' W 122°56'0 0.0
2017-Nov-16 11:30N 46°05' W 122°56'0 0.0
2017-Nov-16 10:52N 46°05' W 122°56'0 0.0
2017-Nov-16 10:31N 46°05' W 122°56'0 0.0
2017-Nov-16 10:01N 46°05' W 122°56'0 0.0
2017-Nov-16 09:31N 46°05' W 122°56'0 0.0
2017-Nov-16 09:01N 46°05' W 122°56'0 0.0
2017-Nov-16 08:31N 46°05' W 122°56'0 0.0
2017-Nov-16 08:00N 46°05' W 122°56'0 0.0
2017-Nov-16 07:30N 46°05' W 122°56'0 0.0
2017-Nov-16 07:00N 46°05' W 122°56'0 0.0
2017-Nov-16 06:30N 46°05' W 122°56'0 0.0
2017-Nov-16 06:00N 46°05' W 122°56'0 0.0
2017-Nov-16 05:30N 46°05' W 122°56'0 0.0
2017-Nov-16 05:01N 46°05' W 122°56'0 0.0
2017-Nov-16 04:30N 46°05' W 122°56'0 0.0
2017-Nov-16 04:00N 46°05' W 122°56'1 1.4
2017-Nov-16 03:30N 46°05' W 122°55'4 8.1
2017-Nov-16 03:00N 46°02' W 122°52'0 0.0
2017-Nov-16 02:31N 46°02' W 122°52'1 1.6
2017-Nov-16 02:00N 46°02' W 122°53'2 3.4
2017-Nov-16 01:30N 46°04' W 122°53'2 4.4
2017-Nov-16 01:01N 46°05' W 122°56'0 0.0
2017-Nov-16 00:30N 46°05' W 122°56'0 0.0
2017-Nov-16 00:00N 46°05' W 122°56'0 0.0
2017-Nov-15 23:30N 46°05' W 122°56'0 0.0
2017-Nov-15 23:00N 46°05' W 122°56'0 0.0
2017-Nov-15 22:30N 46°05' W 122°56'0 0.0
2017-Nov-15 22:00N 46°05' W 122°56'0 0.0
2017-Nov-15 21:28N 46°05' W 122°56'0 0.0
2017-Nov-15 21:01N 46°05' W 122°56'0 0.0
2017-Nov-15 20:30N 46°05' W 122°56'0 0.0
2017-Nov-15 20:00N 46°05' W 122°56'0 0.0
2017-Nov-15 19:23N 46°05' W 122°56'0 0.0
2017-Nov-15 18:53N 46°05' W 122°56'0 0.0
2017-Nov-15 18:30N 46°05' W 122°56'0 0.0
2017-Nov-15 18:00N 46°05' W 122°56'0 0.0
2017-Nov-15 17:30N 46°05' W 122°56'0 0.0
2017-Nov-15 16:59N 46°05' W 122°56'0 0.0
2017-Nov-15 16:28N 46°05' W 122°56'0 0.0
2017-Nov-15 16:01N 46°05' W 122°56'0 0.0
2017-Nov-15 15:31N 46°05' W 122°56'0 0.0
2017-Nov-15 15:00N 46°05' W 122°56'0 0.2
2017-Nov-15 14:30N 46°05' W 122°56'0 0.2
2017-Nov-15 14:00N 46°06' W 122°56'2 3.1
2017-Nov-15 13:31N 46°06' W 122°58'1 1.2
2017-Nov-15 13:01N 46°06' W 122°57'510.0
2017-Nov-15 12:30N 46°02' W 122°53'0 0.8
2017-Nov-15 12:01N 46°02' W 122°52'0 0.0
2017-Nov-15 11:30N 46°02' W 122°52'0 0.2
2017-Nov-15 11:00N 46°02' W 122°52'0 0.0
2017-Nov-15 10:30N 46°02' W 122°52'3 5.2
2017-Nov-15 10:01N 46°04' W 122°53'4 7.6
2017-Nov-15 09:31N 46°07' W 122°58'5 9.5
2017-Nov-15 09:00N 46°09' W 123°03'5 9.5
2017-Nov-15 08:31N 46°11' W 123°09'1 2.4
2017-Nov-15 08:00N 46°11' W 123°11'0 0.5
2017-Nov-15 07:31N 46°11' W 123°11'4 6.3
2017-Nov-15 06:57N 46°10' W 123°06'4 8.4
2017-Nov-15 06:30N 46°08' W 123°02'4 8.0
2017-Nov-15 06:00N 46°06' W 122°57'1 1.4
2017-Nov-15 05:16N 46°05' W 122°56'0 0.0
2017-Nov-15 04:55N 46°05' W 122°56'0 0.0
2017-Nov-15 04:25N 46°05' W 122°56'0 0.0
2017-Nov-15 03:49N 46°05' W 122°56'0 0.0
2017-Nov-15 03:25N 46°05' W 122°56'0 0.0
2017-Nov-15 02:55N 46°05' W 122°56'0 0.0
2017-Nov-15 02:13N 46°05' W 122°56'0 0.0
2017-Nov-15 01:55N 46°05' W 122°56'0 0.0
2017-Nov-15 01:19N 46°05' W 122°56'0 0.0
2017-Nov-15 01:00N 46°05' W 122°56'0 0.0
2017-Nov-15 00:30N 46°05' W 122°56'0 0.0
2017-Nov-15 00:00N 46°05' W 122°56'0 0.0
2017-Nov-14 23:30N 46°05' W 122°56'0 0.0
2017-Nov-14 23:00N 46°05' W 122°56'1 1.4
2017-Nov-14 22:30N 46°06' W 122°57'1 1.2
2017-Nov-14 22:00N 46°06' W 122°56'0 0.4
2017-Nov-14 21:30N 46°05' W 122°55'1 2.5
2017-Nov-14 21:01N 46°05' W 122°54'1 1.1
2017-Nov-14 20:30N 46°05' W 122°54'3 5.1
2017-Nov-14 20:00N 46°03' W 122°53'5 9.6
2017-Nov-14 19:29N 45°58' W 122°50'510.1
2017-Nov-14 19:01N 45°54' W 122°48'510.4
2017-Nov-14 18:31N 45°49' W 122°48'510.8
2017-Nov-14 18:01N 45°43' W 122°46'510.4
2017-Nov-14 17:31N 45°38' W 122°47'3 5.5
2017-Nov-14 16:58N 45°35' W 122°46'0 0.0
2017-Nov-14 16:28N 45°35' W 122°46'0 0.0
2017-Nov-14 15:58N 45°35' W 122°46'0 0.0
2017-Nov-14 15:25N 45°35' W 122°46'0 0.0
2017-Nov-14 14:58N 45°35' W 122°46'0 0.0
2017-Nov-14 14:28N 45°35' W 122°46'0 0.0
2017-Nov-14 13:46N 45°35' W 122°46'0 0.0
2017-Nov-14 13:25N 45°35' W 122°46'0 0.0
2017-Nov-14 12:58N 45°35' W 122°46'0 0.0
2017-Nov-14 12:13N 45°35' W 122°46'0 0.0
2017-Nov-14 11:58N 45°35' W 122°46'0 0.0
2017-Nov-14 11:28N 45°35' W 122°46'0 0.0
2017-Nov-14 10:58N 45°35' W 122°46'0 0.0
2017-Nov-14 10:28N 45°35' W 122°46'0 0.0
2017-Nov-14 09:58N 45°35' W 122°46'0 0.0
2017-Nov-14 09:28N 45°35' W 122°46'0 0.0
2017-Nov-14 08:22N 45°35' W 122°46'0 0.0
2017-Nov-14 07:49N 45°35' W 122°46'0 0.0
2017-Nov-14 07:16N 45°35' W 122°46'0 0.0
2017-Nov-14 06:58N 45°35' W 122°46'0 0.0
2017-Nov-14 06:28N 45°35' W 122°46'0 0.0
2017-Nov-14 05:55N 45°35' W 122°46'0 0.0
2017-Nov-14 05:22N 45°35' W 122°46'0 0.0
2017-Nov-14 04:58N 45°35' W 122°46'0 0.0
2017-Nov-14 04:22N 45°35' W 122°46'0 0.0
2017-Nov-14 03:55N 45°35' W 122°46'0 0.0
2017-Nov-14 03:19N 45°35' W 122°46'0 0.0
2017-Nov-14 02:58N 45°35' W 122°46'0 0.0
2017-Nov-14 02:25N 45°35' W 122°46'0 0.0
2017-Nov-14 01:58N 45°35' W 122°46'0 0.0
2017-Nov-14 01:22N 45°35' W 122°46'0 0.0
2017-Nov-14 00:55N 45°35' W 122°46'0 0.0
2017-Nov-13 23:25N 45°35' W 122°46'0 0.0
2017-Nov-13 22:58N 45°35' W 122°46'0 0.0
2017-Nov-13 22:28N 45°35' W 122°46'0 0.0
2017-Nov-13 21:55N 45°35' W 122°46'0 0.0
2017-Nov-13 02:00N 45°35' W 122°46'4 7.1
2017-Nov-13 01:30N 45°39' W 122°46'1 2.5
2017-Nov-13 01:00N 45°40' W 122°46'1 1.1
2017-Nov-13 00:31N 45°39' W 122°46'1 2.5
2017-Nov-13 00:01N 45°38' W 122°47'1 1.1
2017-Nov-12 23:31N 45°39' W 122°46'1 1.1
2017-Nov-12 23:00N 45°38' W 122°47'0 0.0
2017-Nov-12 22:31N 45°38' W 122°47'0 0.0
2017-Nov-12 22:00N 45°38' W 122°47'3 5.1
2017-Nov-12 21:31N 45°36' W 122°47'1 0.9
2017-Nov-12 20:47N 45°35' W 122°46'0 0.0
2017-Nov-12 20:23N 45°35' W 122°46'0 0.0
2017-Nov-12 19:57N 45°35' W 122°46'2 4.3
2017-Nov-12 19:31N 45°34' W 122°44'0 0.0
2017-Nov-12 19:01N 45°34' W 122°44'2 3.4
2017-Nov-12 18:30N 45°35' W 122°46'0 0.4
2017-Nov-12 18:00N 45°35' W 122°46'0 0.0
2017-Nov-12 17:30N 45°35' W 122°46'0 0.0
2017-Nov-12 17:00N 45°35' W 122°46'0 0.0
2017-Nov-12 16:31N 45°35' W 122°46'4 8.0
2017-Nov-12 16:00N 45°39' W 122°46'4 8.9
2017-Nov-12 15:30N 45°44' W 122°46'4 8.8
2017-Nov-12 15:00N 45°48' W 122°47'4 8.7
2017-Nov-12 14:31N 45°52' W 122°47'3 5.3
2017-Nov-12 14:01N 45°50' W 122°48'5 9.7
2017-Nov-12 13:31N 45°45' W 122°46'612.3
2017-Nov-12 13:00N 45°39' W 122°46'2 3.3
2017-Nov-12 12:30N 45°38' W 122°47'1 2.6
2017-Nov-12 12:01N 45°39' W 122°46'0 0.0
2017-Nov-12 11:30N 45°39' W 122°46'3 3.7
2017-Nov-12 10:36N 45°35' W 122°46'0 0.0
2017-Nov-12 10:24N 45°35' W 122°46'0 0.0
2017-Nov-12 09:57N 45°35' W 122°46'1 2.9
2017-Nov-12 09:30N 45°35' W 122°45'1 1.3
2017-Nov-12 09:01N 45°34' W 122°44'1 1.4
2017-Nov-12 08:30N 45°35' W 122°45'1 2.1
2017-Nov-12 07:56N 45°35' W 122°46'0 0.0
2017-Nov-12 07:27N 45°35' W 122°46'0 0.0
2017-Nov-12 06:57N 45°35' W 122°46'0 0.0
2017-Nov-12 06:30N 45°35' W 122°46'0 0.0
2017-Nov-12 05:48N 45°35' W 122°46'0 0.0
2017-Nov-12 05:27N 45°35' W 122°46'0 0.0
2017-Nov-12 05:00N 45°35' W 122°46'0 0.0
2017-Nov-12 04:30N 45°35' W 122°46'0 0.0
2017-Nov-12 04:00N 45°35' W 122°46'0 0.0
2017-Nov-12 03:30N 45°35' W 122°46'0 0.0
2017-Nov-12 02:54N 45°35' W 122°46'0 0.0
2017-Nov-12 02:30N 45°35' W 122°46'0 0.0
2017-Nov-12 02:00N 45°35' W 122°46'0 0.0
2017-Nov-12 01:30N 45°35' W 122°46'0 0.0
2017-Nov-12 01:00N 45°35' W 122°46'0 0.0
2017-Nov-12 00:30N 45°35' W 122°46'0 0.0
2017-Nov-12 00:00N 45°35' W 122°46'0 0.3
2017-Nov-11 23:30N 45°35' W 122°46'3 5.4
2017-Nov-11 23:01N 45°38' W 122°47'4 7.0
2017-Nov-11 22:30N 45°42' W 122°47'4 7.4
2017-Nov-11 22:00N 45°45' W 122°46'4 7.5
2017-Nov-11 21:30N 45°49' W 122°48'4 7.3
2017-Nov-11 21:01N 45°52' W 122°47'4 7.4
2017-Nov-11 20:30N 45°56' W 122°48'4 7.5
2017-Nov-11 20:00N 45°59' W 122°51'4 7.8
2017-Nov-11 19:30N 46°03' W 122°53'4 7.1
2017-Nov-11 19:00N 46°06' W 122°56'3 6.2
2017-Nov-11 18:30N 46°07' W 122°60'3 6.2
2017-Nov-11 18:00N 46°09' W 123°03'3 6.3
2017-Nov-11 17:30N 46°11' W 123°07'3 7.0
2017-Nov-11 17:00N 46°11' W 123°12'4 7.7
2017-Nov-11 16:30N 46°09' W 123°17'4 7.7
2017-Nov-11 16:00N 46°09' W 123°23'4 7.4
2017-Nov-11 15:30N 46°12' W 123°26'5 7.4
2017-Nov-11 14:48N 46°16' W 123°30'4 8.9
2017-Nov-11 14:22N 46°15' W 123°35'3 9.2
2017-Nov-11 14:00N 46°15' W 123°40'5 9.4
2017-Nov-11 13:30N 46°13' W 123°46'5 9.4
2017-Nov-11 13:00N 46°12' W 123°52'4 7.4
2017-Nov-11 12:31N 46°13' W 123°57'2 3.2
2017-Nov-11 11:58N 46°12' W 123°56'0 0.0
2017-Nov-11 11:25N 46°12' W 123°56'0 0.0
2017-Nov-11 10:58N 46°12' W 123°56'0 0.0
2017-Nov-11 10:28N 46°12' W 123°56'0 0.0
2017-Nov-11 09:58N 46°12' W 123°56'0 0.0
2017-Nov-11 09:28N 46°12' W 123°56'0 0.0
2017-Nov-11 08:43N 46°12' W 123°56'0 0.0
2017-Nov-11 08:28N 46°12' W 123°56'0 0.0
2017-Nov-11 07:58N 46°12' W 123°56'0 0.0
2017-Nov-11 07:28N 46°12' W 123°56'0 0.0
2017-Nov-11 06:58N 46°12' W 123°56'0 0.0
2017-Nov-11 06:28N 46°12' W 123°56'0 0.0
2017-Nov-11 05:55N 46°12' W 123°56'0 0.0
2017-Nov-11 05:28N 46°12' W 123°56'0 0.0
2017-Nov-11 04:58N 46°12' W 123°56'0 0.0
2017-Nov-11 04:28N 46°12' W 123°56'0 0.0
2017-Nov-11 03:58N 46°12' W 123°56'0 0.0
2017-Nov-11 03:28N 46°12' W 123°56'0 0.0
2017-Nov-11 02:55N 46°12' W 123°56'0 0.0
2017-Nov-11 02:28N 46°12' W 123°56'0 0.0
2017-Nov-11 01:58N 46°12' W 123°56'0 0.0
2017-Nov-11 01:28N 46°12' W 123°56'0 0.0
2017-Nov-11 00:58N 46°12' W 123°56'0 0.0
2017-Nov-11 00:28N 46°12' W 123°56'0 0.0
2017-Nov-10 23:58N 46°12' W 123°56'0 0.0
2017-Nov-10 23:25N 46°12' W 123°56'0 0.0
2017-Nov-10 22:58N 46°12' W 123°56'0 0.0
2017-Nov-10 22:28N 46°12' W 123°56'0 0.0
2017-Nov-10 21:58N 46°12' W 123°56'0 0.0
2017-Nov-10 21:28N 46°12' W 123°56'0 0.0
2017-Nov-10 20:58N 46°12' W 123°56'0 0.0
2017-Nov-10 20:28N 46°12' W 123°56'0 0.0
2017-Nov-10 19:58N 46°12' W 123°56'0 0.0
2017-Nov-10 19:28N 46°12' W 123°56'2 4.7
2017-Nov-10 19:01N 46°12' W 123°52'4 8.8
2017-Nov-10 18:30N 46°13' W 123°46'510.1
2017-Nov-10 18:01N 46°15' W 123°40'5 9.9
2017-Nov-10 17:31N 46°16' W 123°33'4 8.3
2017-Nov-10 17:01N 46°15' W 123°27'4 8.6
2017-Nov-10 16:31N 46°11' W 123°26'2 4.8
2017-Nov-10 16:00N 46°09' W 123°24'4 8.0
2017-Nov-10 15:30N 46°09' W 123°18'4 8.2
2017-Nov-10 15:01N 46°10' W 123°13'4 8.0
2017-Nov-10 14:30N 46°11' W 123°07'4 8.8
2017-Nov-10 14:00N 46°08' W 123°02'4 7.9
2017-Nov-10 13:31N 46°06' W 122°57'0 0.4
2017-Nov-10 13:01N 46°06' W 122°57'1 1.5
2017-Nov-10 12:20N 46°05' W 122°56'0 0.0
2017-Nov-10 11:56N 46°05' W 122°56'0 0.0
2017-Nov-10 11:29N 46°05' W 122°56'0 0.0
2017-Nov-10 10:59N 46°05' W 122°56'0 0.0
2017-Nov-10 10:23N 46°05' W 122°56'0 0.0
2017-Nov-10 09:41N 46°05' W 122°56'0 0.0
2017-Nov-10 09:26N 46°05' W 122°56'0 0.0
2017-Nov-10 08:59N 46°05' W 122°56'0 0.0
2017-Nov-10 08:29N 46°05' W 122°56'0 0.0
2017-Nov-10 07:53N 46°05' W 122°56'0 0.0
2017-Nov-10 07:14N 46°05' W 122°56'0 0.0
2017-Nov-10 06:59N 46°05' W 122°56'0 0.0
2017-Nov-10 06:23N 46°05' W 122°56'0 0.0
2017-Nov-10 05:59N 46°05' W 122°56'0 0.0
2017-Nov-10 05:26N 46°05' W 122°56'0 0.0
2017-Nov-10 04:47N 46°05' W 122°56'0 0.0
2017-Nov-10 04:29N 46°05' W 122°56'0 0.0
2017-Nov-10 03:59N 46°05' W 122°56'0 0.0
2017-Nov-10 03:14N 46°05' W 122°56'0 0.0
2017-Nov-10 02:53N 46°05' W 122°56'0 0.0
2017-Nov-10 02:11N 46°05' W 122°56'0 0.0
2017-Nov-10 01:35N 46°05' W 122°56'0 0.0
2017-Nov-10 01:20N 46°05' W 122°56'0 0.0
2017-Nov-10 00:59N 46°05' W 122°56'  
Track history (hours):
 
Tides and Currents Weather Stations Pressure Air Temp Water Temp Dewpoint Dewpoint Depression Visibility Wind Speed Wind Dir Waves Ship Positions

Pj Brix

Owner: Foss Maritime Co., Portland, OR. More information available from US FCC via Universal Licensing System and Coast Guard Vessel Documentation Center.

Last reported at 2017-Nov-20 00:31 UTC. Time now 2017-Nov-20 02:15 UTC.
Position N 46°02' W 122°52'.

Length 39 m; draft 3 m.

Type: Towing. MMSI: 2249672.

Date/timePositionNaut miles runAvg speedWind from/ knotsBaromVisibWave heightAir tempDewpointWater temp
2017-Nov-20 00:31N 46°02' W 122°52'0 0.1
2017-Nov-20 00:01N 46°02' W 122°52'1 2.6
2017-Nov-19 23:31N 46°03' W 122°53'3 6.5
2017-Nov-19 23:01N 46°05' W 122°56'0 0.0
2017-Nov-19 22:30N 46°05' W 122°56'0 0.0
2017-Nov-19 22:00N 46°05' W 122°56'0 0.0
2017-Nov-19 21:31N 46°05' W 122°56'0 0.0
2017-Nov-19 21:00N 46°05' W 122°56'0 0.0
2017-Nov-19 20:31N 46°05' W 122°56'0 0.0
2017-Nov-19 20:01N 46°05' W 122°56'0 0.0
2017-Nov-19 19:19N 46°05' W 122°56'0 0.0
2017-Nov-19 19:01N 46°05' W 122°56'0 0.0
2017-Nov-19 18:31N 46°05' W 122°56'0 0.0
2017-Nov-19 18:00N 46°05' W 122°56'0 0.0
2017-Nov-19 17:30N 46°05' W 122°56'0 0.0
2017-Nov-19 17:01N 46°05' W 122°56'0 0.0
2017-Nov-19 16:05N 46°05' W 122°56'0 0.0
2017-Nov-19 16:00N 46°05' W 122°56'0 0.0
2017-Nov-19 15:31N 46°05' W 122°56'0 0.0
2017-Nov-19 15:00N 46°05' W 122°56'0 0.0
2017-Nov-19 14:31N 46°05' W 122°56'0 0.0
2017-Nov-19 14:00N 46°05' W 122°56'0 0.0
2017-Nov-19 13:30N 46°05' W 122°56'0 0.0
2017-Nov-19 13:01N 46°05' W 122°56'0 0.0
2017-Nov-19 12:31N 46°05' W 122°56'0 0.0
2017-Nov-19 12:01N 46°05' W 122°56'0 0.0
2017-Nov-19 11:30N 46°05' W 122°56'0 0.0
2017-Nov-19 11:00N 46°05' W 122°56'0 0.0
2017-Nov-19 10:30N 46°05' W 122°56'0 0.0
2017-Nov-19 10:01N 46°05' W 122°56'0 0.0
2017-Nov-19 09:20N 46°05' W 122°56'0 0.0
2017-Nov-19 09:01N 46°05' W 122°56'0 0.0
2017-Nov-19 08:30N 46°05' W 122°56'0 0.0
2017-Nov-19 08:00N 46°05' W 122°56'0 0.0
2017-Nov-19 07:30N 46°05' W 122°56'0 0.0
2017-Nov-19 07:01N 46°05' W 122°56'0 0.0
2017-Nov-19 06:30N 46°05' W 122°56'0 0.0
2017-Nov-19 06:00N 46°05' W 122°56'0 0.0
2017-Nov-19 05:30N 46°05' W 122°56'0 0.0
2017-Nov-19 05:01N 46°05' W 122°56'0 0.0
2017-Nov-19 04:30N 46°05' W 122°56'0 0.0
2017-Nov-19 04:00N 46°05' W 122°56'0 0.0
2017-Nov-19 03:31N 46°05' W 122°56'0 0.0
2017-Nov-19 03:01N 46°05' W 122°56'0 0.0
2017-Nov-19 02:30N 46°05' W 122°56'0 0.0
2017-Nov-19 02:00N 46°05' W 122°56'0 0.0
2017-Nov-19 01:31N 46°05' W 122°56'0 0.0
2017-Nov-19 01:00N 46°05' W 122°56'0 0.0
2017-Nov-19 00:30N 46°05' W 122°56'0 0.0
2017-Nov-19 00:01N 46°05' W 122°56'0 0.0
2017-Nov-18 23:31N 46°05' W 122°56'0 0.0
2017-Nov-18 23:00N 46°05' W 122°56'2 3.3
2017-Nov-18 22:31N 46°06' W 122°58'4 8.2
2017-Nov-18 22:00N 46°09' W 123°02'4 8.4
2017-Nov-18 21:30N 46°11' W 123°08'4 8.2
2017-Nov-18 21:01N 46°10' W 123°13'4 8.3
2017-Nov-18 20:30N 46°09' W 123°19'4 8.2
2017-Nov-18 20:01N 46°10' W 123°24'4 8.2
2017-Nov-18 19:31N 46°14' W 123°26'4 7.8
2017-Nov-18 19:01N 46°16' W 123°30'4 8.5
2017-Nov-18 18:31N 46°15' W 123°36'4 8.8
2017-Nov-18 18:01N 46°15' W 123°42'4 7.5
2017-Nov-18 17:31N 46°12' W 123°47'1 1.4
2017-Nov-18 17:00N 46°13' W 123°46'0 1.0
2017-Nov-18 16:30N 46°13' W 123°45'0 1.0
2017-Nov-18 16:01N 46°13' W 123°45'3 5.9
2017-Nov-18 15:31N 46°15' W 123°41'4 7.3
2017-Nov-18 15:01N 46°15' W 123°36'4 7.9
2017-Nov-18 14:30N 46°16' W 123°30'4 7.2
2017-Nov-18 14:01N 46°14' W 123°26'4 7.7
2017-Nov-18 13:30N 46°11' W 123°25'5 7.1
2017-Nov-18 12:50N 46°09' W 123°19'2 7.4
2017-Nov-18 12:30N 46°09' W 123°16'4 7.4
2017-Nov-18 11:58N 46°11' W 123°11'3 6.5
2017-Nov-18 11:31N 46°11' W 123°06'3 6.6
2017-Nov-18 11:01N 46°09' W 123°02'3 6.5
2017-Nov-18 10:31N 46°07' W 122°59'1 2.4
2017-Nov-18 10:00N 46°06' W 122°57'0 0.0
2017-Nov-18 09:30N 46°06' W 122°57'4 7.4
2017-Nov-18 09:01N 46°04' W 122°53'2 4.7
2017-Nov-18 08:30N 46°02' W 122°52'0 0.1
2017-Nov-18 08:00N 46°02' W 122°52'0 1.0
2017-Nov-18 07:30N 46°02' W 122°53'0 0.8
2017-Nov-18 07:00N 46°02' W 122°52'0 0.0
2017-Nov-18 06:30N 46°02' W 122°52'0 0.0
2017-Nov-18 06:00N 46°02' W 122°52'0 0.0
2017-Nov-18 05:30N 46°02' W 122°52'0 0.0
2017-Nov-18 05:00N 46°02' W 122°52'2 4.1
2017-Nov-18 04:30N 46°04' W 122°53'3 5.0
2017-Nov-18 04:00N 46°05' W 122°56'0 0.0
2017-Nov-18 03:30N 46°05' W 122°56'0 0.0
2017-Nov-18 03:00N 46°05' W 122°56'0 0.0
2017-Nov-18 02:30N 46°05' W 122°56'0 0.0
2017-Nov-18 02:00N 46°05' W 122°56'0 0.0
2017-Nov-18 01:15N 46°05' W 122°56'0 0.0
2017-Nov-18 00:47N 46°05' W 122°56'0 0.0
2017-Nov-18 00:15N 46°05' W 122°56'0 0.0
2017-Nov-18 00:00N 46°05' W 122°56'0 0.0
2017-Nov-17 23:31N 46°05' W 122°56'0 0.0
2017-Nov-17 23:00N 46°05' W 122°56'0 0.0
2017-Nov-17 22:31N 46°05' W 122°56'0 0.0
2017-Nov-17 22:01N 46°05' W 122°56'0 0.0
2017-Nov-17 21:30N 46°05' W 122°56'0 0.0
2017-Nov-17 21:00N 46°05' W 122°56'0 0.0
2017-Nov-17 20:30N 46°05' W 122°56'0 0.0
2017-Nov-17 20:00N 46°05' W 122°56'0 0.0
2017-Nov-17 19:30N 46°05' W 122°56'0 0.0
2017-Nov-17 19:00N 46°05' W 122°56'0 0.0
2017-Nov-17 18:31N 46°05' W 122°56'0 0.0
2017-Nov-17 18:00N 46°05' W 122°56'0 0.0
2017-Nov-17 17:31N 46°05' W 122°56'0 0.0
2017-Nov-17 17:00N 46°05' W 122°56'0 0.0
2017-Nov-17 16:30N 46°05' W 122°56'1 2.2
2017-Nov-17 16:00N 46°06' W 122°57'0 0.1
2017-Nov-17 15:31N 46°06' W 122°57'1 2.0
2017-Nov-17 14:48N 46°07' W 122°59'3 6.9
2017-Nov-17 14:18N 46°05' W 122°55'310.4
2017-Nov-17 14:00N 46°02' W 122°53'1 1.2
2017-Nov-17 13:30N 46°02' W 122°52'0 0.0
2017-Nov-17 12:59N 46°02' W 122°52'0 0.0
2017-Nov-17 12:30N 46°02' W 122°52'2 4.2
2017-Nov-17 12:01N 45°60' W 122°51'5 9.0
2017-Nov-17 11:30N 45°56' W 122°48'4 9.0
2017-Nov-17 11:01N 45°51' W 122°47'5 8.8
2017-Nov-17 10:23N 45°46' W 122°46'4 9.6
2017-Nov-17 10:01N 45°42' W 122°46'4 8.3
2017-Nov-17 09:31N 45°39' W 122°44'1 2.3
2017-Nov-17 08:54N 45°38' W 122°42'2 6.0
2017-Nov-17 08:31N 45°39' W 122°45'1 2.2
2017-Nov-17 08:01N 45°39' W 122°46'0 0.0
2017-Nov-17 07:30N 45°39' W 122°46'0 0.3
2017-Nov-17 07:01N 45°39' W 122°46'1 1.7
2017-Nov-17 06:30N 45°39' W 122°46'0 0.3
2017-Nov-17 06:01N 45°39' W 122°45'2 3.9
2017-Nov-17 05:31N 45°41' W 122°46'4 8.1
2017-Nov-17 05:01N 45°45' W 122°46'4 8.0
2017-Nov-17 04:31N 45°49' W 122°48'4 7.7
2017-Nov-17 04:00N 45°53' W 122°48'4 7.7
2017-Nov-17 03:28N 45°57' W 122°49'4 8.0
2017-Nov-17 03:00N 46°00' W 122°51'4 7.5
2017-Nov-17 02:30N 46°04' W 122°53'2 4.9
2017-Nov-17 02:00N 46°05' W 122°56'0 0.0
2017-Nov-17 01:30N 46°05' W 122°56'0 0.0
2017-Nov-17 01:01N 46°05' W 122°56'0 0.0
2017-Nov-17 00:30N 46°05' W 122°56'0 0.0
2017-Nov-17 00:01N 46°05' W 122°56'0 0.0
2017-Nov-16 23:31N 46°05' W 122°56'0 0.0
2017-Nov-16 23:00N 46°05' W 122°56'0 0.0
2017-Nov-16 22:30N 46°05' W 122°56'0 0.0
2017-Nov-16 22:01N 46°05' W 122°56'0 0.0
2017-Nov-16 21:30N 46°05' W 122°56'0 0.0
2017-Nov-16 21:00N 46°05' W 122°56'0 0.0
2017-Nov-16 20:31N 46°05' W 122°56'0 0.0
2017-Nov-16 20:00N 46°05' W 122°56'0 0.0
2017-Nov-16 19:30N 46°05' W 122°56'0 0.9
2017-Nov-16 19:01N 46°05' W 122°55'0 0.8
2017-Nov-16 18:31N 46°05' W 122°56'0 0.0
2017-Nov-16 18:00N 46°05' W 122°56'0 0.0
2017-Nov-16 17:30N 46°05' W 122°56'0 0.0
2017-Nov-16 17:01N 46°05' W 122°56'0 0.0
2017-Nov-16 16:30N 46°05' W 122°56'0 0.0
2017-Nov-16 16:00N 46°05' W 122°56'1 1.8
2017-Nov-16 15:31N 46°06' W 122°57'2 4.6
2017-Nov-16 15:00N 46°08' W 122°59'0 1.0
2017-Nov-16 14:30N 46°08' W 122°60'0 0.8
2017-Nov-16 14:00N 46°08' W 123°00'2 4.3
2017-Nov-16 13:30N 46°06' W 122°58'2 3.7
2017-Nov-16 13:00N 46°05' W 122°56'0 0.0
2017-Nov-16 12:31N 46°05' W 122°56'0 0.0
2017-Nov-16 12:00N 46°05' W 122°56'0 0.0
2017-Nov-16 11:30N 46°05' W 122°56'0 0.0
2017-Nov-16 10:52N 46°05' W 122°56'0 0.0
2017-Nov-16 10:31N 46°05' W 122°56'0 0.0
2017-Nov-16 10:01N 46°05' W 122°56'0 0.0
2017-Nov-16 09:31N 46°05' W 122°56'0 0.0
2017-Nov-16 09:01N 46°05' W 122°56'0 0.0
2017-Nov-16 08:31N 46°05' W 122°56'0 0.0
2017-Nov-16 08:00N 46°05' W 122°56'0 0.0
2017-Nov-16 07:30N 46°05' W 122°56'0 0.0
2017-Nov-16 07:00N 46°05' W 122°56'0 0.0
2017-Nov-16 06:30N 46°05' W 122°56'0 0.0
2017-Nov-16 06:00N 46°05' W 122°56'0 0.0
2017-Nov-16 05:30N 46°05' W 122°56'0 0.0
2017-Nov-16 05:01N 46°05' W 122°56'0 0.0
2017-Nov-16 04:30N 46°05' W 122°56'0 0.0
2017-Nov-16 04:00N 46°05' W 122°56'1 1.4
2017-Nov-16 03:30N 46°05' W 122°55'4 8.1
2017-Nov-16 03:00N 46°02' W 122°52'0 0.0
2017-Nov-16 02:31N 46°02' W 122°52'1 1.6
2017-Nov-16 02:00N 46°02' W 122°53'2 3.4
2017-Nov-16 01:30N 46°04' W 122°53'2 4.4
2017-Nov-16 01:01N 46°05' W 122°56'0 0.0
2017-Nov-16 00:30N 46°05' W 122°56'0 0.0
2017-Nov-16 00:00N 46°05' W 122°56'0 0.0
2017-Nov-15 23:30N 46°05' W 122°56'0 0.0
2017-Nov-15 23:00N 46°05' W 122°56'0 0.0
2017-Nov-15 22:30N 46°05' W 122°56'0 0.0
2017-Nov-15 22:00N 46°05' W 122°56'0 0.0
2017-Nov-15 21:28N 46°05' W 122°56'0 0.0
2017-Nov-15 21:01N 46°05' W 122°56'0 0.0
2017-Nov-15 20:30N 46°05' W 122°56'0 0.0
2017-Nov-15 20:00N 46°05' W 122°56'0 0.0
2017-Nov-15 19:23N 46°05' W 122°56'0 0.0
2017-Nov-15 18:53N 46°05' W 122°56'0 0.0
2017-Nov-15 18:30N 46°05' W 122°56'0 0.0
2017-Nov-15 18:00N 46°05' W 122°56'0 0.0
2017-Nov-15 17:30N 46°05' W 122°56'0 0.0
2017-Nov-15 16:59N 46°05' W 122°56'0 0.0
2017-Nov-15 16:28N 46°05' W 122°56'0 0.0
2017-Nov-15 16:01N 46°05' W 122°56'0 0.0
2017-Nov-15 15:31N 46°05' W 122°56'0 0.0
2017-Nov-15 15:00N 46°05' W 122°56'0 0.2
2017-Nov-15 14:30N 46°05' W 122°56'0 0.2
2017-Nov-15 14:00N 46°06' W 122°56'2 3.1
2017-Nov-15 13:31N 46°06' W 122°58'1 1.2
2017-Nov-15 13:01N 46°06' W 122°57'510.0
2017-Nov-15 12:30N 46°02' W 122°53'0 0.8
2017-Nov-15 12:01N 46°02' W 122°52'0 0.0
2017-Nov-15 11:30N 46°02' W 122°52'0 0.2
2017-Nov-15 11:00N 46°02' W 122°52'0 0.0
2017-Nov-15 10:30N 46°02' W 122°52'3 5.2
2017-Nov-15 10:01N 46°04' W 122°53'4 7.6
2017-Nov-15 09:31N 46°07' W 122°58'5 9.5
2017-Nov-15 09:00N 46°09' W 123°03'5 9.5
2017-Nov-15 08:31N 46°11' W 123°09'1 2.4
2017-Nov-15 08:00N 46°11' W 123°11'0 0.5
2017-Nov-15 07:31N 46°11' W 123°11'4 6.3
2017-Nov-15 06:57N 46°10' W 123°06'4 8.4
2017-Nov-15 06:30N 46°08' W 123°02'4 8.0
2017-Nov-15 06:00N 46°06' W 122°57'1 1.4
2017-Nov-15 05:16N 46°05' W 122°56'0 0.0
2017-Nov-15 04:55N 46°05' W 122°56'0 0.0
2017-Nov-15 04:25N 46°05' W 122°56'0 0.0
2017-Nov-15 03:49N 46°05' W 122°56'0 0.0
2017-Nov-15 03:25N 46°05' W 122°56'0 0.0
2017-Nov-15 02:55N 46°05' W 122°56'0 0.0
2017-Nov-15 02:13N 46°05' W 122°56'0 0.0
2017-Nov-15 01:55N 46°05' W 122°56'0 0.0
2017-Nov-15 01:19N 46°05' W 122°56'0 0.0
2017-Nov-15 01:00N 46°05' W 122°56'0 0.0
2017-Nov-15 00:30N 46°05' W 122°56'0 0.0
2017-Nov-15 00:00N 46°05' W 122°56'0 0.0
2017-Nov-14 23:30N 46°05' W 122°56'0 0.0
2017-Nov-14 23:00N 46°05' W 122°56'1 1.4
2017-Nov-14 22:30N 46°06' W 122°57'1 1.2
2017-Nov-14 22:00N 46°06' W 122°56'0 0.4
2017-Nov-14 21:30N 46°05' W 122°55'1 2.5
2017-Nov-14 21:01N 46°05' W 122°54'1 1.1
2017-Nov-14 20:30N 46°05' W 122°54'3 5.1
2017-Nov-14 20:00N 46°03' W 122°53'5 9.6
2017-Nov-14 19:29N 45°58' W 122°50'510.1
2017-Nov-14 19:01N 45°54' W 122°48'510.4
2017-Nov-14 18:31N 45°49' W 122°48'510.8
2017-Nov-14 18:01N 45°43' W 122°46'510.4
2017-Nov-14 17:31N 45°38' W 122°47'3 5.5
2017-Nov-14 16:58N 45°35' W 122°46'0 0.0
2017-Nov-14 16:28N 45°35' W 122°46'0 0.0
2017-Nov-14 15:58N 45°35' W 122°46'0 0.0
2017-Nov-14 15:25N 45°35' W 122°46'0 0.0
2017-Nov-14 14:58N 45°35' W 122°46'0 0.0
2017-Nov-14 14:28N 45°35' W 122°46'0 0.0
2017-Nov-14 13:46N 45°35' W 122°46'0 0.0
2017-Nov-14 13:25N 45°35' W 122°46'0 0.0
2017-Nov-14 12:58N 45°35' W 122°46'0 0.0
2017-Nov-14 12:13N 45°35' W 122°46'0 0.0
2017-Nov-14 11:58N 45°35' W 122°46'0 0.0
2017-Nov-14 11:28N 45°35' W 122°46'0 0.0
2017-Nov-14 10:58N 45°35' W 122°46'0 0.0
2017-Nov-14 10:28N 45°35' W 122°46'0 0.0
2017-Nov-14 09:58N 45°35' W 122°46'0 0.0
2017-Nov-14 09:28N 45°35' W 122°46'0 0.0
2017-Nov-14 08:22N 45°35' W 122°46'0 0.0
2017-Nov-14 07:49N 45°35' W 122°46'0 0.0
2017-Nov-14 07:16N 45°35' W 122°46'0 0.0
2017-Nov-14 06:58N 45°35' W 122°46'0 0.0
2017-Nov-14 06:28N 45°35' W 122°46'0 0.0
2017-Nov-14 05:55N 45°35' W 122°46'0 0.0
2017-Nov-14 05:22N 45°35' W 122°46'0 0.0
2017-Nov-14 04:58N 45°35' W 122°46'0 0.0
2017-Nov-14 04:22N 45°35' W 122°46'0 0.0
2017-Nov-14 03:55N 45°35' W 122°46'0 0.0
2017-Nov-14 03:19N 45°35' W 122°46'0 0.0
2017-Nov-14 02:58N 45°35' W 122°46'0 0.0
2017-Nov-14 02:25N 45°35' W 122°46'0 0.0
2017-Nov-14 01:58N 45°35' W 122°46'0 0.0
2017-Nov-14 01:22N 45°35' W 122°46'0 0.0
2017-Nov-14 00:55N 45°35' W 122°46'0 0.0
2017-Nov-13 23:25N 45°35' W 122°46'0 0.0
2017-Nov-13 22:58N 45°35' W 122°46'0 0.0
2017-Nov-13 22:28N 45°35' W 122°46'0 0.0
2017-Nov-13 21:55N 45°35' W 122°46'0 0.0
2017-Nov-13 02:00N 45°35' W 122°46'4 7.1
2017-Nov-13 01:30N 45°39' W 122°46'1 2.5
2017-Nov-13 01:00N 45°40' W 122°46'1 1.1
2017-Nov-13 00:31N 45°39' W 122°46'1 2.5
2017-Nov-13 00:01N 45°38' W 122°47'1 1.1
2017-Nov-12 23:31N 45°39' W 122°46'1 1.1
2017-Nov-12 23:00N 45°38' W 122°47'0 0.0
2017-Nov-12 22:31N 45°38' W 122°47'0 0.0
2017-Nov-12 22:00N 45°38' W 122°47'3 5.1
2017-Nov-12 21:31N 45°36' W 122°47'1 0.9
2017-Nov-12 20:47N 45°35' W 122°46'0 0.0
2017-Nov-12 20:23N 45°35' W 122°46'0 0.0
2017-Nov-12 19:57N 45°35' W 122°46'2 4.3
2017-Nov-12 19:31N 45°34' W 122°44'0 0.0
2017-Nov-12 19:01N 45°34' W 122°44'2 3.4
2017-Nov-12 18:30N 45°35' W 122°46'0 0.4
2017-Nov-12 18:00N 45°35' W 122°46'0 0.0
2017-Nov-12 17:30N 45°35' W 122°46'0 0.0
2017-Nov-12 17:00N 45°35' W 122°46'0 0.0
2017-Nov-12 16:31N 45°35' W 122°46'4 8.0
2017-Nov-12 16:00N 45°39' W 122°46'4 8.9
2017-Nov-12 15:30N 45°44' W 122°46'4 8.8
2017-Nov-12 15:00N 45°48' W 122°47'4 8.7
2017-Nov-12 14:31N 45°52' W 122°47'3 5.3
2017-Nov-12 14:01N 45°50' W 122°48'5 9.7
2017-Nov-12 13:31N 45°45' W 122°46'612.3
2017-Nov-12 13:00N 45°39' W 122°46'2 3.3
2017-Nov-12 12:30N 45°38' W 122°47'1 2.6
2017-Nov-12 12:01N 45°39' W 122°46'0 0.0
2017-Nov-12 11:30N 45°39' W 122°46'3 3.7
2017-Nov-12 10:36N 45°35' W 122°46'0 0.0
2017-Nov-12 10:24N 45°35' W 122°46'0 0.0
2017-Nov-12 09:57N 45°35' W 122°46'1 2.9
2017-Nov-12 09:30N 45°35' W 122°45'1 1.3
2017-Nov-12 09:01N 45°34' W 122°44'1 1.4
2017-Nov-12 08:30N 45°35' W 122°45'1 2.1
2017-Nov-12 07:56N 45°35' W 122°46'0 0.0
2017-Nov-12 07:27N 45°35' W 122°46'0 0.0
2017-Nov-12 06:57N 45°35' W 122°46'0 0.0
2017-Nov-12 06:30N 45°35' W 122°46'0 0.0
2017-Nov-12 05:48N 45°35' W 122°46'0 0.0
2017-Nov-12 05:27N 45°35' W 122°46'0 0.0
2017-Nov-12 05:00N 45°35' W 122°46'0 0.0
2017-Nov-12 04:30N 45°35' W 122°46'0 0.0
2017-Nov-12 04:00N 45°35' W 122°46'0 0.0
2017-Nov-12 03:30N 45°35' W 122°46'0 0.0
2017-Nov-12 02:54N 45°35' W 122°46'0 0.0
2017-Nov-12 02:30N 45°35' W 122°46'0 0.0
2017-Nov-12 02:00N 45°35' W 122°46'0 0.0
2017-Nov-12 01:30N 45°35' W 122°46'0 0.0
2017-Nov-12 01:00N 45°35' W 122°46'0 0.0
2017-Nov-12 00:30N 45°35' W 122°46'0 0.0
2017-Nov-12 00:00N 45°35' W 122°46'0 0.3
2017-Nov-11 23:30N 45°35' W 122°46'3 5.4
2017-Nov-11 23:01N 45°38' W 122°47'4 7.0
2017-Nov-11 22:30N 45°42' W 122°47'4 7.4
2017-Nov-11 22:00N 45°45' W 122°46'4 7.5
2017-Nov-11 21:30N 45°49' W 122°48'4 7.3
2017-Nov-11 21:01N 45°52' W 122°47'4 7.4
2017-Nov-11 20:30N 45°56' W 122°48'4 7.5
2017-Nov-11 20:00N 45°59' W 122°51'4 7.8
2017-Nov-11 19:30N 46°03' W 122°53'4 7.1
2017-Nov-11 19:00N 46°06' W 122°56'3 6.2
2017-Nov-11 18:30N 46°07' W 122°60'3 6.2
2017-Nov-11 18:00N 46°09' W 123°03'3 6.3
2017-Nov-11 17:30N 46°11' W 123°07'3 7.0
2017-Nov-11 17:00N 46°11' W 123°12'4 7.7
2017-Nov-11 16:30N 46°09' W 123°17'4 7.7
2017-Nov-11 16:00N 46°09' W 123°23'4 7.4
2017-Nov-11 15:30N 46°12' W 123°26'5 7.4
2017-Nov-11 14:48N 46°16' W 123°30'4 8.9
2017-Nov-11 14:22N 46°15' W 123°35'3 9.2
2017-Nov-11 14:00N 46°15' W 123°40'5 9.4
2017-Nov-11 13:30N 46°13' W 123°46'5 9.4
2017-Nov-11 13:00N 46°12' W 123°52'4 7.4
2017-Nov-11 12:31N 46°13' W 123°57'2 3.2
2017-Nov-11 11:58N 46°12' W 123°56'0 0.0
2017-Nov-11 11:25N 46°12' W 123°56'0 0.0
2017-Nov-11 10:58N 46°12' W 123°56'0 0.0
2017-Nov-11 10:28N 46°12' W 123°56'0 0.0
2017-Nov-11 09:58N 46°12' W 123°56'0 0.0
2017-Nov-11 09:28N 46°12' W 123°56'0 0.0
2017-Nov-11 08:43N 46°12' W 123°56'0 0.0
2017-Nov-11 08:28N 46°12' W 123°56'0 0.0
2017-Nov-11 07:58N 46°12' W 123°56'0 0.0
2017-Nov-11 07:28N 46°12' W 123°56'0 0.0
2017-Nov-11 06:58N 46°12' W 123°56'0 0.0
2017-Nov-11 06:28N 46°12' W 123°56'0 0.0
2017-Nov-11 05:55N 46°12' W 123°56'0 0.0
2017-Nov-11 05:28N 46°12' W 123°56'0 0.0
2017-Nov-11 04:58N 46°12' W 123°56'0 0.0
2017-Nov-11 04:28N 46°12' W 123°56'0 0.0
2017-Nov-11 03:58N 46°12' W 123°56'0 0.0
2017-Nov-11 03:28N 46°12' W 123°56'0 0.0
2017-Nov-11 02:55N 46°12' W 123°56'0 0.0
2017-Nov-11 02:28N 46°12' W 123°56'0 0.0
2017-Nov-11 01:58N 46°12' W 123°56'0 0.0
2017-Nov-11 01:28N 46°12' W 123°56'0 0.0
2017-Nov-11 00:58N 46°12' W 123°56'0 0.0
2017-Nov-11 00:28N 46°12' W 123°56'0 0.0
2017-Nov-10 23:58N 46°12' W 123°56'0 0.0
2017-Nov-10 23:25N 46°12' W 123°56'0 0.0
2017-Nov-10 22:58N 46°12' W 123°56'0 0.0
2017-Nov-10 22:28N 46°12' W 123°56'0 0.0
2017-Nov-10 21:58N 46°12' W 123°56'0 0.0
2017-Nov-10 21:28N 46°12' W 123°56'0 0.0
2017-Nov-10 20:58N 46°12' W 123°56'0 0.0
2017-Nov-10 20:28N 46°12' W 123°56'0 0.0
2017-Nov-10 19:58N 46°12' W 123°56'0 0.0
2017-Nov-10 19:28N 46°12' W 123°56'2 4.7
2017-Nov-10 19:01N 46°12' W 123°52'4 8.8
2017-Nov-10 18:30N 46°13' W 123°46'510.1
2017-Nov-10 18:01N 46°15' W 123°40'5 9.9
2017-Nov-10 17:31N 46°16' W 123°33'4 8.3
2017-Nov-10 17:01N 46°15' W 123°27'4 8.6
2017-Nov-10 16:31N 46°11' W 123°26'2 4.8
2017-Nov-10 16:00N 46°09' W 123°24'4 8.0
2017-Nov-10 15:30N 46°09' W 123°18'4 8.2
2017-Nov-10 15:01N 46°10' W 123°13'4 8.0
2017-Nov-10 14:30N 46°11' W 123°07'4 8.8
2017-Nov-10 14:00N 46°08' W 123°02'4 7.9
2017-Nov-10 13:31N 46°06' W 122°57'0 0.4
2017-Nov-10 13:01N 46°06' W 122°57'1 1.5
2017-Nov-10 12:20N 46°05' W 122°56'0 0.0
2017-Nov-10 11:56N 46°05' W 122°56'0 0.0
2017-Nov-10 11:29N 46°05' W 122°56'0 0.0
2017-Nov-10 10:59N 46°05' W 122°56'0 0.0
2017-Nov-10 10:23N 46°05' W 122°56'0 0.0
2017-Nov-10 09:41N 46°05' W 122°56'0 0.0
2017-Nov-10 09:26N 46°05' W 122°56'0 0.0
2017-Nov-10 08:59N 46°05' W 122°56'0 0.0
2017-Nov-10 08:29N 46°05' W 122°56'0 0.0
2017-Nov-10 07:53N 46°05' W 122°56'0 0.0
2017-Nov-10 07:14N 46°05' W 122°56'0 0.0
2017-Nov-10 06:59N 46°05' W 122°56'0 0.0
2017-Nov-10 06:23N 46°05' W 122°56'0 0.0
2017-Nov-10 05:59N 46°05' W 122°56'0 0.0
2017-Nov-10 05:26N 46°05' W 122°56'0 0.0
2017-Nov-10 04:47N 46°05' W 122°56'0 0.0
2017-Nov-10 04:29N 46°05' W 122°56'0 0.0
2017-Nov-10 03:59N 46°05' W 122°56'0 0.0
2017-Nov-10 03:14N 46°05' W 122°56'0 0.0
2017-Nov-10 02:53N 46°05' W 122°56'0 0.0
2017-Nov-10 02:11N 46°05' W 122°56'0 0.0
2017-Nov-10 01:35N 46°05' W 122°56'0 0.0
2017-Nov-10 01:20N 46°05' W 122°56'0 0.0
2017-Nov-10 00:59N 46°05' W 122°56'  

Dump ship's entire track history